createdAt,value
2022-12-16T00:00:19.371Z,15.23
2022-12-16T00:02:47.050Z,13.30
2022-12-16T00:05:14.812Z,14.60
2022-12-16T00:07:42.197Z,12.73
2022-12-16T00:10:10.072Z,15.15
2022-12-16T00:12:37.409Z,12.73
2022-12-16T00:15:05.163Z,13.75
2022-12-16T00:17:32.891Z,11.25
2022-12-16T00:20:00.304Z,11.85
2022-12-16T00:22:28.119Z,12.15
2022-12-16T00:24:55.781Z,10.48
2022-12-16T00:27:23.165Z,10.43
2022-12-16T00:29:50.523Z,11.93
2022-12-16T00:32:18.175Z,9.65
2022-12-16T00:34:45.537Z,9.88
2022-12-16T00:37:13.468Z,8.80
2022-12-16T00:39:41.088Z,9.85
2022-12-16T00:42:08.874Z,9.75
2022-12-16T00:44:36.317Z,8.38
2022-12-16T00:47:08.902Z,7.95
2022-12-16T00:49:36.934Z,8.00
2022-12-16T00:52:04.746Z,7.75
2022-12-16T00:54:32.090Z,7.35
2022-12-16T00:56:59.443Z,7.03
2022-12-16T00:59:27.076Z,7.03
2022-12-16T01:01:54.474Z,7.18
2022-12-16T01:04:22.799Z,6.82
2022-12-16T01:06:50.435Z,6.68
2022-12-16T01:09:17.915Z,7.85
2022-12-16T01:11:45.253Z,7.00
2022-12-16T01:14:13.009Z,6.60
2022-12-16T01:16:40.419Z,7.10
2022-12-16T01:19:08.240Z,7.05
2022-12-16T01:21:35.941Z,7.22
2022-12-16T01:24:03.325Z,6.00
2022-12-16T01:26:31.807Z,6.47
2022-12-16T01:28:59.511Z,5.82
2022-12-16T01:31:26.921Z,6.07
2022-12-16T01:33:54.348Z,6.47
2022-12-16T01:36:23.180Z,6.28
2022-12-16T01:38:50.521Z,5.90
2022-12-16T01:41:18.537Z,5.62
2022-12-16T01:43:46.586Z,6.28
2022-12-16T01:46:18.829Z,5.53
2022-12-16T01:48:49.436Z,5.37
2022-12-16T01:51:34.932Z,5.65
2022-12-16T01:54:10.784Z,5.53
2022-12-16T01:56:41.554Z,5.50
2022-12-16T01:59:09.329Z,6.03
2022-12-16T02:01:36.745Z,5.97
2022-12-16T02:04:04.481Z,5.97
2022-12-16T02:06:33.323Z,5.37
2022-12-16T02:09:03.412Z,5.93
2022-12-16T02:11:43.002Z,5.85
2022-12-16T02:14:29.372Z,6.07
2022-12-16T02:17:02.386Z,5.55
2022-12-16T02:19:45.100Z,5.05
2022-12-16T02:22:46.732Z,5.30
2022-12-16T02:25:34.741Z,5.90
2022-12-16T02:28:04.528Z,5.70
2022-12-16T02:30:52.750Z,5.65
2022-12-16T02:33:31.891Z,4.85
2022-12-16T02:36:26.623Z,6.00
2022-12-16T02:39:05.175Z,7.00
2022-12-16T02:41:35.844Z,5.43
2022-12-16T02:44:09.508Z,5.85
2022-12-16T02:46:42.728Z,6.80
2022-12-16T02:49:30.512Z,6.45
2022-12-16T02:51:59.620Z,7.32
2022-12-16T02:54:27.920Z,6.85
2022-12-16T02:57:17.267Z,6.68
2022-12-16T03:00:05.919Z,7.12
2022-12-16T03:02:36.665Z,6.55
2022-12-16T03:05:12.815Z,6.90
2022-12-16T03:07:41.499Z,8.52
2022-12-16T03:10:13.222Z,7.32
2022-12-16T03:12:42.261Z,7.68
2022-12-16T03:15:10.691Z,7.22
2022-12-16T03:17:38.779Z,7.50
2022-12-16T03:20:12.301Z,7.10
2022-12-16T03:22:43.008Z,8.38
2022-12-16T03:25:11.160Z,7.22
2022-12-16T03:27:56.391Z,6.65
2022-12-16T03:30:36.816Z,6.32
2022-12-16T03:33:09.183Z,6.35
2022-12-16T03:35:40.646Z,6.80
2022-12-16T03:38:10.556Z,6.75
2022-12-16T03:40:38.814Z,7.32
2022-12-16T03:43:06.875Z,7.37
2022-12-16T03:45:39.577Z,6.40
2022-12-16T03:48:08.942Z,6.60
2022-12-16T03:50:37.224Z,6.40
2022-12-16T03:53:05.700Z,6.37
2022-12-16T03:55:33.580Z,6.22
2022-12-16T03:58:01.000Z,6.03
2022-12-16T04:00:28.348Z,6.20
2022-12-16T04:02:56.188Z,6.18
2022-12-16T04:05:23.795Z,5.93
2022-12-16T04:07:51.137Z,5.75
2022-12-16T04:10:38.794Z,4.93
2022-12-16T04:13:26.378Z,5.60
2022-12-16T04:16:13.025Z,5.93
2022-12-16T04:18:59.600Z,5.25
2022-12-16T04:21:46.243Z,5.53
2022-12-16T04:24:19.376Z,6.28
2022-12-16T04:27:13.432Z,6.28
2022-12-16T04:30:02.470Z,6.18
2022-12-16T04:32:49.893Z,6.07
2022-12-16T04:35:35.798Z,6.97
2022-12-16T04:38:22.199Z,7.03
2022-12-16T04:41:08.223Z,8.90
2022-12-16T04:43:54.431Z,10.60
2022-12-16T04:46:40.427Z,5.53
2022-12-16T04:49:27.296Z,7.78
2022-12-16T04:52:13.231Z,7.40
2022-12-16T04:55:16.215Z,7.87
2022-12-16T04:58:11.234Z,8.00
2022-12-16T05:00:57.519Z,7.80
2022-12-16T05:03:44.121Z,6.93
2022-12-16T05:06:30.843Z,7.90
2022-12-16T05:09:17.291Z,8.30
2022-12-16T05:12:03.336Z,7.90
2022-12-16T05:14:49.272Z,8.25
2022-12-16T05:17:35.681Z,8.82
2022-12-16T05:20:22.234Z,9.05
2022-12-16T05:23:08.576Z,8.80
2022-12-16T05:25:54.906Z,9.10
2022-12-16T05:28:41.022Z,9.88
2022-12-16T05:31:27.579Z,9.82
2022-12-16T05:34:13.903Z,10.02
2022-12-16T05:36:59.955Z,9.90
2022-12-16T05:39:46.254Z,11.32
2022-12-16T05:42:32.075Z,9.35
2022-12-16T05:45:18.010Z,10.60
2022-12-16T05:48:06.932Z,11.00
2022-12-16T05:50:53.240Z,10.82
2022-12-16T05:53:42.089Z,10.50
2022-12-16T05:56:28.288Z,10.85
2022-12-16T05:59:14.456Z,10.93
2022-12-16T06:02:00.582Z,11.48
2022-12-16T06:04:46.711Z,11.65
2022-12-16T06:07:32.679Z,11.10
2022-12-16T06:10:18.771Z,11.75
2022-12-16T06:13:06.125Z,11.18
2022-12-16T06:16:08.808Z,12.07
2022-12-16T06:18:55.086Z,12.25
2022-12-16T06:21:41.395Z,11.70
2022-12-16T06:24:27.370Z,12.32
2022-12-16T06:27:13.947Z,12.13
2022-12-16T06:29:59.916Z,13.35
2022-12-16T06:32:46.253Z,12.02
2022-12-16T06:35:32.345Z,12.00
2022-12-16T06:38:18.699Z,12.27
2022-12-16T06:41:04.351Z,13.45
2022-12-16T06:43:50.730Z,12.63
2022-12-16T06:46:36.753Z,12.37
2022-12-16T06:49:23.223Z,13.15
2022-12-16T06:52:09.022Z,13.43
2022-12-16T06:54:55.390Z,13.40
2022-12-16T06:57:41.278Z,12.45
2022-12-16T07:00:28.455Z,13.75
2022-12-16T07:03:14.520Z,13.15
2022-12-16T07:06:00.809Z,13.13
2022-12-16T07:08:57.575Z,13.68
2022-12-16T07:11:43.753Z,12.30
2022-12-16T07:14:29.870Z,13.90
2022-12-16T07:17:17.436Z,12.50
2022-12-16T07:20:03.544Z,13.27
2022-12-16T07:22:56.162Z,13.82
2022-12-16T07:25:47.469Z,13.80
2022-12-16T07:28:34.137Z,13.65
2022-12-16T07:31:20.097Z,14.73
2022-12-16T07:34:23.120Z,13.88
2022-12-16T07:37:09.478Z,14.13
2022-12-16T07:39:55.720Z,14.68
2022-12-16T07:42:42.291Z,13.80
2022-12-16T07:45:29.354Z,14.13
2022-12-16T07:48:15.556Z,15.52
2022-12-16T07:51:01.873Z,14.50
2022-12-16T07:53:48.333Z,14.55
2022-12-16T07:56:35.390Z,14.38
2022-12-16T07:59:21.509Z,15.48
2022-12-16T08:02:07.891Z,16.40
2022-12-16T08:04:55.185Z,15.68
2022-12-16T08:07:41.682Z,14.65
2022-12-16T08:10:28.455Z,14.25
2022-12-16T08:13:32.228Z,15.23
2022-12-16T08:16:25.890Z,15.82
2022-12-16T08:19:11.690Z,16.40
2022-12-16T08:21:58.034Z,14.85
2022-12-16T08:24:48.229Z,15.23
2022-12-16T08:27:37.541Z,16.95
2022-12-16T08:30:24.069Z,16.37
2022-12-16T08:33:18.371Z,16.90
2022-12-16T08:36:06.420Z,16.33
2022-12-16T08:38:52.878Z,17.27
2022-12-16T08:41:38.843Z,15.52
2022-12-16T08:44:25.181Z,17.15
2022-12-16T08:47:11.321Z,16.27
2022-12-16T08:49:59.923Z,17.62
2022-12-16T08:52:49.427Z,16.45
2022-12-16T08:55:35.881Z,18.25
2022-12-16T08:58:21.864Z,19.20
2022-12-16T09:01:08.255Z,17.80
2022-12-16T09:03:55.503Z,18.55
2022-12-16T09:06:41.871Z,21.58
2022-12-16T09:09:28.017Z,19.55
2022-12-16T09:12:14.081Z,19.10
2022-12-16T09:15:00.094Z,20.37
2022-12-16T09:17:46.430Z,19.85
2022-12-16T09:20:32.939Z,19.45
2022-12-16T09:23:23.455Z,20.70
2022-12-16T09:26:09.262Z,19.70
2022-12-16T09:28:55.808Z,19.27
2022-12-16T09:31:42.246Z,19.77
2022-12-16T09:34:45.560Z,18.87
2022-12-16T09:37:31.627Z,19.58
2022-12-16T09:40:17.951Z,18.37
2022-12-16T09:43:03.649Z,20.02
2022-12-16T09:45:56.401Z,19.08
2022-12-16T09:49:01.004Z,19.02
2022-12-16T09:51:47.873Z,22.25
2022-12-16T09:54:35.334Z,28.65
2022-12-16T09:57:22.363Z,23.38
2022-12-16T10:00:15.968Z,21.40
2022-12-16T10:03:06.811Z,24.27
2022-12-16T10:06:20.195Z,20.65
2022-12-16T10:09:17.182Z,20.90
2022-12-16T10:12:16.159Z,22.77
2022-12-16T10:15:13.095Z,22.40
2022-12-16T10:18:04.247Z,22.90
2022-12-16T10:21:04.172Z,23.52
2022-12-16T10:24:12.844Z,22.62
2022-12-16T10:27:14.718Z,22.45
2022-12-16T10:30:02.250Z,22.17
2022-12-16T10:33:11.150Z,23.30
2022-12-16T10:36:08.546Z,22.60
2022-12-16T10:39:01.091Z,21.67
2022-12-16T10:41:51.335Z,23.85
2022-12-16T10:45:02.436Z,23.27
2022-12-16T10:48:05.404Z,24.27
2022-12-16T10:50:51.713Z,22.85
2022-12-16T10:53:46.129Z,23.08
2022-12-16T10:56:51.199Z,25.63
2022-12-16T10:59:37.548Z,25.40
2022-12-16T11:02:37.091Z,23.33
2022-12-16T11:05:47.486Z,24.55
2022-12-16T11:08:52.175Z,22.08
2022-12-16T11:11:41.390Z,24.15
2022-12-16T11:14:35.291Z,26.33
2022-12-16T11:17:44.647Z,25.37
2022-12-16T11:20:38.640Z,23.70
2022-12-16T11:23:39.383Z,23.42
2022-12-16T11:26:36.756Z,21.92
2022-12-16T11:29:34.323Z,23.65
2022-12-16T11:32:25.946Z,24.10
2022-12-16T11:35:15.355Z,25.05
2022-12-16T11:38:02.802Z,24.92
2022-12-16T11:40:49.255Z,25.65
2022-12-16T11:43:37.181Z,24.37
2022-12-16T11:46:38.646Z,23.48
2022-12-16T11:49:28.039Z,23.85
2022-12-16T11:52:36.475Z,22.52
2022-12-16T11:59:04.552Z,23.12
2022-12-16T12:01:55.660Z,22.17
2022-12-16T12:04:41.886Z,24.73
2022-12-16T12:07:45.461Z,24.33
2022-12-16T12:10:59.747Z,23.65
2022-12-16T12:14:07.014Z,21.67
2022-12-16T12:17:25.412Z,21.48
2022-12-16T12:20:49.569Z,20.83
2022-12-16T12:23:45.280Z,19.33
2022-12-16T12:26:32.889Z,18.35
2022-12-16T12:29:47.614Z,17.58
2022-12-16T12:32:49.138Z,14.70
2022-12-16T12:36:10.204Z,13.35
2022-12-16T12:39:36.493Z,14.23
2022-12-16T12:42:32.149Z,13.65
2022-12-16T12:45:24.553Z,11.90
2022-12-16T12:48:36.188Z,13.15
2022-12-16T12:51:44.945Z,11.25
2022-12-16T12:54:39.841Z,11.40
2022-12-16T12:57:28.480Z,13.23
2022-12-16T13:00:46.950Z,10.30
2022-12-16T13:03:46.228Z,8.65
2022-12-16T13:06:34.254Z,10.23
2022-12-16T13:09:20.185Z,12.30
2022-12-16T13:12:24.933Z,12.02
2022-12-16T13:15:33.389Z,9.73
2022-12-16T13:18:19.819Z,11.73
2022-12-16T13:21:13.501Z,9.32
2022-12-16T13:24:03.928Z,12.75
2022-12-16T13:26:52.079Z,10.50
2022-12-16T13:29:44.391Z,10.25
2022-12-16T13:32:30.366Z,9.52
2022-12-16T13:35:29.575Z,11.77
2022-12-16T13:38:18.076Z,13.68
2022-12-16T13:41:22.031Z,13.62
2022-12-16T13:44:14.589Z,14.00
2022-12-16T13:47:21.111Z,12.07
2022-12-16T13:50:09.276Z,11.65
2022-12-16T13:52:58.632Z,10.23
2022-12-16T13:55:49.874Z,12.00
2022-12-16T13:58:45.310Z,10.90
2022-12-16T14:01:35.065Z,10.23
2022-12-16T14:04:21.526Z,10.57
2022-12-16T14:07:08.187Z,9.02
2022-12-16T14:09:56.590Z,46.13
2022-12-16T14:12:55.487Z,19.60
2022-12-16T14:15:50.634Z,27.45
2022-12-16T14:19:04.474Z,24.97
2022-12-16T14:21:58.898Z,47.83
2022-12-16T14:24:46.059Z,18.35
2022-12-16T14:27:54.261Z,10.63
2022-12-16T14:30:44.265Z,12.27
2022-12-16T14:33:56.880Z,10.32
2022-12-16T14:36:45.176Z,11.27
2022-12-16T14:39:42.667Z,13.48
2022-12-16T14:42:41.091Z,9.77
2022-12-16T14:45:44.292Z,9.95
2022-12-16T14:48:34.472Z,10.45
2022-12-16T14:51:52.763Z,11.95
2022-12-16T14:54:44.657Z,11.07
2022-12-16T14:57:34.424Z,14.27
2022-12-16T15:00:26.637Z,16.58
2022-12-16T15:03:23.281Z,12.15
2022-12-16T15:06:10.042Z,10.32
2022-12-16T15:09:08.956Z,10.80
2022-12-16T15:11:55.906Z,11.57
2022-12-16T15:14:51.572Z,11.12
2022-12-16T15:17:43.609Z,11.88
2022-12-16T15:20:41.243Z,11.75
2022-12-16T15:23:49.134Z,13.00
2022-12-16T15:26:41.266Z,14.13
2022-12-16T15:29:47.182Z,13.32
2022-12-16T15:32:53.608Z,13.62
2022-12-16T15:35:44.361Z,13.57
2022-12-16T15:38:33.879Z,16.20
2022-12-16T15:41:21.008Z,14.27
2022-12-16T15:44:07.979Z,14.85
2022-12-16T15:46:54.425Z,14.55
2022-12-16T15:49:43.050Z,14.38
2022-12-16T15:52:56.647Z,15.05
2022-12-16T15:56:02.592Z,14.98
2022-12-16T15:58:55.490Z,15.55
2022-12-16T16:01:44.452Z,14.82
2022-12-16T16:04:45.774Z,14.60
2022-12-16T16:07:34.934Z,13.43
2022-12-16T16:10:27.489Z,15.85
2022-12-16T16:13:13.395Z,17.17
2022-12-16T16:15:59.387Z,14.70
2022-12-16T16:18:45.271Z,15.30
2022-12-16T16:21:31.525Z,15.65
2022-12-16T16:24:17.679Z,15.25
2022-12-16T16:27:04.315Z,13.30
2022-12-16T16:29:50.255Z,12.80
2022-12-16T16:32:36.467Z,11.80
2022-12-16T16:35:22.543Z,12.37
2022-12-16T16:38:08.506Z,11.70
2022-12-16T16:40:57.627Z,10.73
2022-12-16T16:43:44.455Z,13.85
2022-12-16T16:46:39.811Z,9.68
2022-12-16T16:49:30.492Z,9.48
2022-12-16T16:52:16.671Z,9.23
2022-12-16T16:55:02.963Z,8.95
2022-12-16T16:57:51.777Z,10.80
2022-12-16T17:00:38.104Z,8.65
2022-12-16T17:03:23.937Z,9.70
2022-12-16T17:06:10.356Z,10.73
2022-12-16T17:08:56.705Z,13.05
2022-12-16T17:11:42.990Z,14.98
2022-12-16T17:14:34.263Z,9.95
2022-12-16T17:17:21.170Z,14.43
2022-12-16T17:20:07.099Z,13.65
2022-12-16T17:22:53.774Z,14.48
2022-12-16T17:25:39.749Z,17.33
2022-12-16T17:28:26.561Z,14.82
2022-12-16T17:31:12.667Z,25.05
2022-12-16T17:33:59.052Z,20.25
2022-12-16T17:36:44.969Z,20.45
2022-12-16T17:39:31.380Z,20.08
2022-12-16T17:42:17.862Z,19.23
2022-12-16T17:45:03.879Z,15.68
2022-12-16T17:47:50.252Z,13.57
2022-12-16T17:50:36.676Z,14.93
2022-12-16T17:53:22.832Z,16.37
2022-12-16T17:56:09.437Z,14.63
2022-12-16T17:58:57.172Z,18.25
2022-12-16T18:01:44.763Z,16.40
2022-12-16T18:04:31.862Z,15.20
2022-12-16T18:07:18.001Z,12.50
2022-12-16T18:10:04.685Z,14.30
2022-12-16T18:12:51.298Z,13.73
2022-12-16T18:15:37.990Z,13.90
2022-12-16T18:18:24.724Z,14.30
2022-12-16T18:21:15.837Z,14.48
2022-12-16T18:24:01.568Z,14.52
2022-12-16T18:26:47.989Z,14.50
2022-12-16T18:29:34.077Z,16.33
2022-12-16T18:32:21.012Z,15.18
2022-12-16T18:35:08.676Z,14.63
2022-12-16T18:37:55.201Z,14.63
2022-12-16T18:40:42.134Z,17.67
2022-12-16T18:43:28.852Z,17.58
2022-12-16T18:46:15.250Z,16.50
2022-12-16T18:49:01.969Z,16.87
2022-12-16T18:52:07.769Z,23.35
2022-12-16T18:57:40.211Z,25.00
2022-12-16T19:00:27.783Z,25.17
2022-12-16T19:03:13.984Z,27.90
2022-12-16T19:06:00.334Z,24.05
2022-12-16T19:08:48.556Z,26.62
2022-12-16T19:11:35.546Z,27.92
2022-12-16T19:14:21.991Z,26.58
2022-12-16T19:17:09.562Z,27.87
2022-12-16T19:19:55.562Z,25.02
2022-12-16T19:22:42.572Z,27.20
2022-12-16T19:25:29.208Z,26.80
2022-12-16T19:28:17.194Z,25.55
2022-12-16T19:31:15.425Z,26.20
2022-12-16T19:34:03.146Z,25.17
2022-12-16T19:36:50.509Z,26.83
2022-12-16T19:39:36.889Z,27.77
2022-12-16T19:42:23.402Z,26.50
2022-12-16T19:45:09.889Z,26.30
2022-12-16T19:47:55.757Z,28.73
2022-12-16T19:50:43.207Z,28.48
2022-12-16T19:53:29.438Z,29.20
2022-12-16T19:56:19.286Z,27.83
2022-12-16T19:59:05.694Z,33.53
2022-12-16T20:01:52.346Z,33.35
2022-12-16T20:04:41.771Z,33.28
2022-12-16T20:07:27.841Z,33.95
2022-12-16T20:10:14.136Z,33.10
2022-12-16T20:13:00.549Z,29.33
2022-12-16T20:15:47.638Z,32.40
2022-12-16T20:18:33.751Z,34.42
2022-12-16T20:21:23.508Z,30.75
2022-12-16T20:24:09.927Z,31.35
2022-12-16T20:26:56.673Z,34.20
2022-12-16T20:29:43.909Z,33.45
2022-12-16T20:32:30.517Z,33.33
2022-12-16T20:35:16.860Z,34.45
2022-12-16T20:38:03.860Z,35.00
2022-12-16T20:40:50.485Z,32.90
2022-12-16T20:43:43.278Z,34.83
2022-12-16T20:46:29.940Z,35.15
2022-12-16T20:49:16.549Z,33.25
2022-12-16T20:52:02.887Z,31.87
2022-12-16T20:54:49.709Z,33.70
2022-12-16T20:57:36.111Z,36.00
2022-12-16T21:00:23.068Z,34.42
2022-12-16T21:03:09.003Z,35.28
2022-12-16T21:05:56.766Z,30.80
2022-12-16T21:08:42.689Z,32.90
2022-12-16T21:11:29.755Z,32.80
2022-12-16T21:14:16.340Z,29.95
2022-12-16T21:17:02.298Z,32.85
2022-12-16T21:19:49.190Z,35.33
2022-12-16T21:22:35.664Z,34.67
2022-12-16T21:25:24.816Z,30.62
2022-12-16T21:28:15.246Z,33.10
2022-12-16T21:31:01.706Z,35.58
2022-12-16T21:33:48.650Z,38.42
2022-12-16T21:36:34.982Z,31.65
2022-12-16T21:39:22.546Z,33.17
2022-12-16T21:42:08.688Z,36.75
2022-12-16T21:44:56.371Z,37.35
2022-12-16T21:47:42.320Z,35.55
2022-12-16T21:50:28.736Z,33.58
2022-12-16T21:53:14.653Z,33.28
2022-12-16T21:56:01.018Z,31.62
2022-12-16T21:58:46.941Z,35.85
2022-12-16T22:01:33.307Z,35.50
2022-12-16T22:04:19.785Z,39.20
2022-12-16T22:07:05.763Z,39.38
2022-12-16T22:09:52.009Z,33.40
2022-12-16T22:12:38.041Z,35.70
2022-12-16T22:15:24.862Z,34.85
2022-12-16T22:18:10.933Z,38.63
2022-12-16T22:20:57.312Z,36.90
2022-12-16T22:23:49.381Z,37.65
2022-12-16T22:26:35.554Z,35.67
2022-12-16T22:29:22.047Z,39.53
2022-12-16T22:32:08.398Z,38.90
2022-12-16T22:34:55.609Z,37.80
2022-12-16T22:37:41.947Z,37.33
2022-12-16T22:40:28.419Z,39.47
2022-12-16T22:43:14.328Z,38.58
2022-12-16T22:46:00.606Z,40.80
2022-12-16T22:48:46.832Z,32.67
2022-12-16T22:51:33.791Z,36.05
2022-12-16T22:54:20.488Z,37.65
2022-12-16T22:57:07.673Z,39.45
2022-12-16T22:59:53.607Z,38.03
2022-12-16T23:02:39.768Z,39.22
2022-12-16T23:05:28.052Z,41.08
2022-12-16T23:08:14.754Z,39.65
2022-12-16T23:11:01.635Z,35.53
2022-12-16T23:13:47.803Z,37.78
2022-12-16T23:16:34.164Z,40.72
2022-12-16T23:19:19.976Z,37.53
2022-12-16T23:22:07.606Z,41.35
2022-12-16T23:24:53.534Z,37.58
2022-12-16T23:27:40.142Z,39.92
2022-12-16T23:30:27.195Z,38.58
2022-12-16T23:33:17.271Z,35.58
2022-12-16T23:36:03.226Z,37.65
2022-12-16T23:38:49.372Z,35.60
2022-12-16T23:41:35.325Z,40.72
2022-12-16T23:44:21.803Z,43.95
2022-12-16T23:47:07.663Z,36.80
2022-12-16T23:49:53.860Z,34.70
2022-12-16T23:52:42.904Z,39.10
2022-12-16T23:55:29.261Z,38.33
2022-12-16T23:58:22.307Z,39.30
